sensor_id;sensor_type;location;lat;lon;timestamp;temperature;humidity
43679;DHT22;29279;50.858;4.392;2023-12-14T00:02:23;11.80;99.90
43679;DHT22;29279;50.858;4.392;2023-12-14T00:04:49;11.80;99.90
43679;DHT22;29279;50.858;4.392;2023-12-14T00:07:14;11.80;99.90
43679;DHT22;29279;50.858;4.392;2023-12-14T00:09:41;11.90;99.90
43679;DHT22;29279;50.858;4.392;2023-12-14T00:12:07;11.80;99.90
43679;DHT22;29279;50.858;4.392;2023-12-14T00:14:33;11.80;99.90
43679;DHT22;29279;50.858;4.392;2023-12-14T00:16:58;11.80;99.90
43679;DHT22;29279;50.858;4.392;2023-12-14T00:19:24;11.70;99.90
43679;DHT22;29279;50.858;4.392;2023-12-14T00:21:50;11.70;99.90
43679;DHT22;29279;50.858;4.392;2023-12-14T00:24:16;11.70;99.90
43679;DHT22;29279;50.858;4.392;2023-12-14T00:26:41;11.70;99.90
43679;DHT22;29279;50.858;4.392;2023-12-14T00:29:07;11.70;99.90
43679;DHT22;29279;50.858;4.392;2023-12-14T00:31:33;11.70;99.90
43679;DHT22;29279;50.858;4.392;2023-12-14T00:33:58;11.80;99.90
43679;DHT22;29279;50.858;4.392;2023-12-14T00:36:24;11.80;99.90
43679;DHT22;29279;50.858;4.392;2023-12-14T00:38:49;11.80;99.90
43679;DHT22;29279;50.858;4.392;2023-12-14T00:41:15;11.80;99.90
43679;DHT22;29279;50.858;4.392;2023-12-14T00:43:41;11.70;99.90
43679;DHT22;29279;50.858;4.392;2023-12-14T00:46:07;11.80;99.90
43679;DHT22;29279;50.858;4.392;2023-12-14T00:48:33;11.80;99.90
43679;DHT22;29279;50.858;4.392;2023-12-14T00:50:59;11.80;99.90
43679;DHT22;29279;50.858;4.392;2023-12-14T00:53:24;11.80;99.90
43679;DHT22;29279;50.858;4.392;2023-12-14T00:55:50;11.80;99.90
43679;DHT22;29279;50.858;4.392;2023-12-14T00:58:15;11.80;99.90
43679;DHT22;29279;50.858;4.392;2023-12-14T01:00:41;11.80;99.90
43679;DHT22;29279;50.858;4.392;2023-12-14T01:03:07;11.80;99.90
43679;DHT22;29279;50.858;4.392;2023-12-14T01:05:32;11.80;99.90
43679;DHT22;29279;50.858;4.392;2023-12-14T01:07:58;11.70;99.90
43679;DHT22;29279;50.858;4.392;2023-12-14T01:10:23;11.60;99.90
43679;DHT22;29279;50.858;4.392;2023-12-14T01:12:49;11.60;99.90
43679;DHT22;29279;50.858;4.392;2023-12-14T01:15:16;11.60;99.90
43679;DHT22;29279;50.858;4.392;2023-12-14T01:17:42;11.60;99.90
43679;DHT22;29279;50.858;4.392;2023-12-14T01:20:08;11.70;99.90
43679;DHT22;29279;50.858;4.392;2023-12-14T01:22:34;11.70;99.90
43679;DHT22;29279;50.858;4.392;2023-12-14T01:24:59;11.70;99.90
43679;DHT22;29279;50.858;4.392;2023-12-14T01:27:25;11.80;99.90
43679;DHT22;29279;50.858;4.392;2023-12-14T01:29:51;11.80;99.90
43679;DHT22;29279;50.858;4.392;2023-12-14T01:32:16;11.80;99.90
43679;DHT22;29279;50.858;4.392;2023-12-14T01:34:42;11.80;99.90
43679;DHT22;29279;50.858;4.392;2023-12-14T01:37:08;11.80;99.90
43679;DHT22;29279;50.858;4.392;2023-12-14T01:39:33;11.80;99.90
43679;DHT22;29279;50.858;4.392;2023-12-14T01:41:59;11.80;99.90
43679;DHT22;29279;50.858;4.392;2023-12-14T01:44:24;11.70;99.90
43679;DHT22;29279;50.858;4.392;2023-12-14T01:46:50;11.70;99.90
43679;DHT22;29279;50.858;4.392;2023-12-14T01:49:16;11.70;99.90
43679;DHT22;29279;50.858;4.392;2023-12-14T01:51:41;11.70;99.90
43679;DHT22;29279;50.858;4.392;2023-12-14T01:54:07;11.60;99.90
43679;DHT22;29279;50.858;4.392;2023-12-14T01:56:33;11.60;99.90
43679;DHT22;29279;50.858;4.392;2023-12-14T01:58:59;11.60;99.90
43679;DHT22;29279;50.858;4.392;2023-12-14T02:01:41;11.60;99.90
43679;DHT22;29279;50.858;4.392;2023-12-14T02:04:08;11.60;99.90
43679;DHT22;29279;50.858;4.392;2023-12-14T02:06:34;11.60;99.90
43679;DHT22;29279;50.858;4.392;2023-12-14T02:08:59;11.70;99.90
43679;DHT22;29279;50.858;4.392;2023-12-14T02:11:25;11.60;99.90
43679;DHT22;29279;50.858;4.392;2023-12-14T02:13:51;11.40;99.90
43679;DHT22;29279;50.858;4.392;2023-12-14T02:16:16;11.30;99.90
43679;DHT22;29279;50.858;4.392;2023-12-14T02:18:42;11.30;99.90
43679;DHT22;29279;50.858;4.392;2023-12-14T02:21:07;11.20;99.90
43679;DHT22;29279;50.858;4.392;2023-12-14T02:23:33;11.20;99.90
43679;DHT22;29279;50.858;4.392;2023-12-14T02:25:59;11.10;99.90
43679;DHT22;29279;50.858;4.392;2023-12-14T02:28:25;11.10;99.90
43679;DHT22;29279;50.858;4.392;2023-12-14T02:30:51;11.10;99.90
43679;DHT22;29279;50.858;4.392;2023-12-14T02:33:16;11.10;99.90
43679;DHT22;29279;50.858;4.392;2023-12-14T02:35:43;11.10;99.90
43679;DHT22;29279;50.858;4.392;2023-12-14T02:38:08;11.00;99.90
43679;DHT22;29279;50.858;4.392;2023-12-14T02:40:34;10.90;99.90
43679;DHT22;29279;50.858;4.392;2023-12-14T02:43:00;10.90;99.90
43679;DHT22;29279;50.858;4.392;2023-12-14T02:45:25;10.80;99.90
43679;DHT22;29279;50.858;4.392;2023-12-14T02:47:51;10.70;99.90
43679;DHT22;29279;50.858;4.392;2023-12-14T02:50:19;10.80;99.90
43679;DHT22;29279;50.858;4.392;2023-12-14T02:52:45;10.80;99.90
43679;DHT22;29279;50.858;4.392;2023-12-14T02:55:10;10.80;99.90
43679;DHT22;29279;50.858;4.392;2023-12-14T02:57:36;10.80;99.90
43679;DHT22;29279;50.858;4.392;2023-12-14T03:00:02;10.80;99.90
43679;DHT22;29279;50.858;4.392;2023-12-14T03:02:28;10.80;99.90
43679;DHT22;29279;50.858;4.392;2023-12-14T03:04:54;10.70;99.90
43679;DHT22;29279;50.858;4.392;2023-12-14T03:07:20;10.70;99.90
43679;DHT22;29279;50.858;4.392;2023-12-14T03:09:46;10.70;99.90
43679;DHT22;29279;50.858;4.392;2023-12-14T03:12:12;10.70;99.90
43679;DHT22;29279;50.858;4.392;2023-12-14T03:14:37;10.70;99.90
43679;DHT22;29279;50.858;4.392;2023-12-14T03:17:03;10.80;99.90
43679;DHT22;29279;50.858;4.392;2023-12-14T03:19:29;10.80;99.90
43679;DHT22;29279;50.858;4.392;2023-12-14T03:21:55;10.80;99.90
43679;DHT22;29279;50.858;4.392;2023-12-14T03:24:20;10.70;99.90
43679;DHT22;29279;50.858;4.392;2023-12-14T03:26:46;10.70;99.90
43679;DHT22;29279;50.858;4.392;2023-12-14T03:29:12;10.70;99.90
43679;DHT22;29279;50.858;4.392;2023-12-14T03:31:37;10.60;99.90
43679;DHT22;29279;50.858;4.392;2023-12-14T03:34:05;10.50;99.90
43679;DHT22;29279;50.858;4.392;2023-12-14T03:36:31;10.50;99.90
43679;DHT22;29279;50.858;4.392;2023-12-14T03:38:56;10.60;99.90
43679;DHT22;29279;50.858;4.392;2023-12-14T03:41:22;10.60;99.90
43679;DHT22;29279;50.858;4.392;2023-12-14T03:43:47;10.60;99.90
43679;DHT22;29279;50.858;4.392;2023-12-14T03:46:13;10.60;99.90
43679;DHT22;29279;50.858;4.392;2023-12-14T03:48:39;10.70;99.90
43679;DHT22;29279;50.858;4.392;2023-12-14T03:51:05;10.60;99.90
43679;DHT22;29279;50.858;4.392;2023-12-14T03:53:31;10.60;99.90
43679;DHT22;29279;50.858;4.392;2023-12-14T03:55:58;10.60;99.90
43679;DHT22;29279;50.858;4.392;2023-12-14T03:58:24;10.40;99.90
43679;DHT22;29279;50.858;4.392;2023-12-14T04:00:49;10.50;99.90
43679;DHT22;29279;50.858;4.392;2023-12-14T04:03:15;10.40;99.90
43679;DHT22;29279;50.858;4.392;2023-12-14T04:05:40;10.30;99.90
43679;DHT22;29279;50.858;4.392;2023-12-14T04:08:06;10.20;99.90
43679;DHT22;29279;50.858;4.392;2023-12-14T04:10:32;10.30;99.90
43679;DHT22;29279;50.858;4.392;2023-12-14T04:12:58;10.20;99.90
43679;DHT22;29279;50.858;4.392;2023-12-14T04:15:23;10.10;99.90
43679;DHT22;29279;50.858;4.392;2023-12-14T04:17:49;10.20;99.90
43679;DHT22;29279;50.858;4.392;2023-12-14T04:20:15;10.10;99.90
43679;DHT22;29279;50.858;4.392;2023-12-14T04:22:42;10.10;99.90
43679;DHT22;29279;50.858;4.392;2023-12-14T04:25:08;10.10;99.90
43679;DHT22;29279;50.858;4.392;2023-12-14T04:27:34;10.10;99.90
43679;DHT22;29279;50.858;4.392;2023-12-14T04:30:00;10.10;99.90
43679;DHT22;29279;50.858;4.392;2023-12-14T04:32:25;10.00;99.90
43679;DHT22;29279;50.858;4.392;2023-12-14T04:34:51;10.00;99.90
43679;DHT22;29279;50.858;4.392;2023-12-14T04:37:17;9.90;99.90
43679;DHT22;29279;50.858;4.392;2023-12-14T04:39:42;9.90;99.90
43679;DHT22;29279;50.858;4.392;2023-12-14T04:42:08;9.90;99.90
43679;DHT22;29279;50.858;4.392;2023-12-14T04:44:33;9.90;99.90
43679;DHT22;29279;50.858;4.392;2023-12-14T04:46:59;9.90;99.90
43679;DHT22;29279;50.858;4.392;2023-12-14T04:49:25;9.90;99.90
43679;DHT22;29279;50.858;4.392;2023-12-14T04:51:50;9.90;99.90
43679;DHT22;29279;50.858;4.392;2023-12-14T04:54:16;9.80;99.90
43679;DHT22;29279;50.858;4.392;2023-12-14T04:56:45;9.70;99.90
43679;DHT22;29279;50.858;4.392;2023-12-14T04:59:11;9.60;99.90
43679;DHT22;29279;50.858;4.392;2023-12-14T05:01:37;9.70;99.90
43679;DHT22;29279;50.858;4.392;2023-12-14T05:04:02;9.70;99.90
43679;DHT22;29279;50.858;4.392;2023-12-14T05:06:28;9.60;99.90
43679;DHT22;29279;50.858;4.392;2023-12-14T05:08:54;9.60;99.90
43679;DHT22;29279;50.858;4.392;2023-12-14T05:11:21;9.70;99.90
43679;DHT22;29279;50.858;4.392;2023-12-14T05:13:46;9.80;99.90
43679;DHT22;29279;50.858;4.392;2023-12-14T05:16:15;9.80;99.90
43679;DHT22;29279;50.858;4.392;2023-12-14T05:18:41;9.60;99.90
43679;DHT22;29279;50.858;4.392;2023-12-14T05:21:06;9.70;99.90
43679;DHT22;29279;50.858;4.392;2023-12-14T05:23:32;9.80;99.90
43679;DHT22;29279;50.858;4.392;2023-12-14T05:25:58;9.90;99.90
43679;DHT22;29279;50.858;4.392;2023-12-14T05:28:24;9.80;99.90
43679;DHT22;29279;50.858;4.392;2023-12-14T05:30:50;9.80;99.90
43679;DHT22;29279;50.858;4.392;2023-12-14T05:33:15;9.80;99.90
43679;DHT22;29279;50.858;4.392;2023-12-14T05:35:41;9.70;99.90
43679;DHT22;29279;50.858;4.392;2023-12-14T05:38:07;9.70;99.90
43679;DHT22;29279;50.858;4.392;2023-12-14T05:40:32;9.70;99.90
43679;DHT22;29279;50.858;4.392;2023-12-14T05:42:58;9.60;99.90
43679;DHT22;29279;50.858;4.392;2023-12-14T05:45:24;9.60;99.90
43679;DHT22;29279;50.858;4.392;2023-12-14T05:47:50;9.70;99.90
43679;DHT22;29279;50.858;4.392;2023-12-14T05:50:16;9.60;99.90
43679;DHT22;29279;50.858;4.392;2023-12-14T05:52:42;9.70;99.90
43679;DHT22;29279;50.858;4.392;2023-12-14T05:55:09;9.70;99.90
43679;DHT22;29279;50.858;4.392;2023-12-14T05:57:37;9.60;99.90
43679;DHT22;29279;50.858;4.392;2023-12-14T06:00:05;9.50;99.90
43679;DHT22;29279;50.858;4.392;2023-12-14T06:02:31;9.50;99.90
43679;DHT22;29279;50.858;4.392;2023-12-14T06:04:57;9.60;99.90
43679;DHT22;29279;50.858;4.392;2023-12-14T06:07:23;9.50;99.90
43679;DHT22;29279;50.858;4.392;2023-12-14T06:09:49;9.50;99.90
43679;DHT22;29279;50.858;4.392;2023-12-14T06:12:15;9.50;99.90
43679;DHT22;29279;50.858;4.392;2023-12-14T06:14:40;9.40;99.90
43679;DHT22;29279;50.858;4.392;2023-12-14T06:17:06;9.50;99.90
43679;DHT22;29279;50.858;4.392;2023-12-14T06:19:31;9.30;99.90
43679;DHT22;29279;50.858;4.392;2023-12-14T06:21:57;9.30;99.90
43679;DHT22;29279;50.858;4.392;2023-12-14T06:24:23;9.40;99.90
43679;DHT22;29279;50.858;4.392;2023-12-14T06:26:49;9.40;99.90
43679;DHT22;29279;50.858;4.392;2023-12-14T06:29:15;9.50;99.90
43679;DHT22;29279;50.858;4.392;2023-12-14T06:31:40;9.50;99.90
43679;DHT22;29279;50.858;4.392;2023-12-14T06:34:06;9.50;99.90
43679;DHT22;29279;50.858;4.392;2023-12-14T06:36:33;9.60;99.90
43679;DHT22;29279;50.858;4.392;2023-12-14T06:39:00;9.60;99.90
43679;DHT22;29279;50.858;4.392;2023-12-14T06:41:27;9.60;99.90
43679;DHT22;29279;50.858;4.392;2023-12-14T06:43:53;9.60;99.90
43679;DHT22;29279;50.858;4.392;2023-12-14T06:46:19;9.50;99.90
43679;DHT22;29279;50.858;4.392;2023-12-14T06:48:45;9.40;99.90
43679;DHT22;29279;50.858;4.392;2023-12-14T06:51:11;9.40;99.90
43679;DHT22;29279;50.858;4.392;2023-12-14T06:53:40;9.40;99.90
43679;DHT22;29279;50.858;4.392;2023-12-14T06:56:06;9.40;99.90
43679;DHT22;29279;50.858;4.392;2023-12-14T06:58:35;9.40;99.90
43679;DHT22;29279;50.858;4.392;2023-12-14T07:01:01;9.40;99.90
43679;DHT22;29279;50.858;4.392;2023-12-14T07:03:26;9.40;99.90
43679;DHT22;29279;50.858;4.392;2023-12-14T07:05:52;9.40;99.90
43679;DHT22;29279;50.858;4.392;2023-12-14T07:08:17;9.50;99.90
43679;DHT22;29279;50.858;4.392;2023-12-14T07:10:43;9.50;99.90
43679;DHT22;29279;50.858;4.392;2023-12-14T07:13:09;9.50;99.90
43679;DHT22;29279;50.858;4.392;2023-12-14T07:15:34;9.50;99.90
43679;DHT22;29279;50.858;4.392;2023-12-14T07:18:00;9.50;99.90
43679;DHT22;29279;50.858;4.392;2023-12-14T07:20:27;9.40;99.90
43679;DHT22;29279;50.858;4.392;2023-12-14T07:22:53;9.30;99.90
43679;DHT22;29279;50.858;4.392;2023-12-14T07:25:18;9.30;99.90
43679;DHT22;29279;50.858;4.392;2023-12-14T07:27:44;9.20;99.90
43679;DHT22;29279;50.858;4.392;2023-12-14T07:30:12;9.10;99.90
43679;DHT22;29279;50.858;4.392;2023-12-14T07:32:38;9.00;99.90
43679;DHT22;29279;50.858;4.392;2023-12-14T07:35:04;9.00;99.90
43679;DHT22;29279;50.858;4.392;2023-12-14T07:37:30;9.00;99.90
43679;DHT22;29279;50.858;4.392;2023-12-14T07:39:56;9.00;99.90
43679;DHT22;29279;50.858;4.392;2023-12-14T07:42:23;9.10;99.90
43679;DHT22;29279;50.858;4.392;2023-12-14T07:44:49;9.10;99.90
43679;DHT22;29279;50.858;4.392;2023-12-14T07:47:14;9.20;99.90
43679;DHT22;29279;50.858;4.392;2023-12-14T07:49:40;9.20;99.90
43679;DHT22;29279;50.858;4.392;2023-12-14T07:52:08;9.20;99.90
43679;DHT22;29279;50.858;4.392;2023-12-14T07:54:35;9.30;99.90
43679;DHT22;29279;50.858;4.392;2023-12-14T07:57:01;9.30;99.90
43679;DHT22;29279;50.858;4.392;2023-12-14T07:59:27;9.30;99.90
43679;DHT22;29279;50.858;4.392;2023-12-14T08:01:52;9.30;99.90
43679;DHT22;29279;50.858;4.392;2023-12-14T08:04:21;9.30;99.90
43679;DHT22;29279;50.858;4.392;2023-12-14T08:06:46;9.30;99.90
43679;DHT22;29279;50.858;4.392;2023-12-14T08:09:12;9.30;99.90
43679;DHT22;29279;50.858;4.392;2023-12-14T08:11:38;9.30;99.90
43679;DHT22;29279;50.858;4.392;2023-12-14T08:14:03;9.40;99.90
43679;DHT22;29279;50.858;4.392;2023-12-14T08:16:29;9.40;99.90
43679;DHT22;29279;50.858;4.392;2023-12-14T08:18:55;9.50;99.90
43679;DHT22;29279;50.858;4.392;2023-12-14T08:21:20;9.60;99.90
43679;DHT22;29279;50.858;4.392;2023-12-14T08:23:46;9.90;99.90
43679;DHT22;29279;50.858;4.392;2023-12-14T08:26:12;10.00;99.90
43679;DHT22;29279;50.858;4.392;2023-12-14T08:28:41;10.30;99.90
43679;DHT22;29279;50.858;4.392;2023-12-14T08:31:08;10.90;99.90
43679;DHT22;29279;50.858;4.392;2023-12-14T08:33:35;11.40;99.90
43679;DHT22;29279;50.858;4.392;2023-12-14T08:36:01;12.10;99.90
43679;DHT22;29279;50.858;4.392;2023-12-14T08:38:26;12.80;99.90
43679;DHT22;29279;50.858;4.392;2023-12-14T08:40:52;13.00;99.90
43679;DHT22;29279;50.858;4.392;2023-12-14T08:43:17;13.20;99.90
43679;DHT22;29279;50.858;4.392;2023-12-14T08:45:43;13.50;99.90
43679;DHT22;29279;50.858;4.392;2023-12-14T08:48:09;13.90;99.90
43679;DHT22;29279;50.858;4.392;2023-12-14T08:50:34;14.40;99.90
43679;DHT22;29279;50.858;4.392;2023-12-14T08:53:00;14.90;99.90
43679;DHT22;29279;50.858;4.392;2023-12-14T08:55:26;15.40;99.90
43679;DHT22;29279;50.858;4.392;2023-12-14T08:57:52;15.90;99.90
43679;DHT22;29279;50.858;4.392;2023-12-14T09:00:18;16.40;99.90
43679;DHT22;29279;50.858;4.392;2023-12-14T09:02:45;16.90;99.90
43679;DHT22;29279;50.858;4.392;2023-12-14T09:05:13;17.50;99.90
43679;DHT22;29279;50.858;4.392;2023-12-14T09:07:40;17.60;99.90
43679;DHT22;29279;50.858;4.392;2023-12-14T09:10:06;17.20;99.90
43679;DHT22;29279;50.858;4.392;2023-12-14T09:12:33;16.70;99.90
43679;DHT22;29279;50.858;4.392;2023-12-14T09:15:00;16.40;99.90
43679;DHT22;29279;50.858;4.392;2023-12-14T09:17:26;15.90;99.90
43679;DHT22;29279;50.858;4.392;2023-12-14T09:19:52;15.50;99.90
43679;DHT22;29279;50.858;4.392;2023-12-14T09:22:17;14.90;99.90
43679;DHT22;29279;50.858;4.392;2023-12-14T09:24:43;14.50;99.90
43679;DHT22;29279;50.858;4.392;2023-12-14T09:27:09;14.00;99.90
43679;DHT22;29279;50.858;4.392;2023-12-14T09:29:34;13.70;99.90
43679;DHT22;29279;50.858;4.392;2023-12-14T09:32:00;13.50;99.90
43679;DHT22;29279;50.858;4.392;2023-12-14T09:34:26;13.20;99.90
43679;DHT22;29279;50.858;4.392;2023-12-14T09:36:51;13.00;99.90
43679;DHT22;29279;50.858;4.392;2023-12-14T09:39:17;12.80;99.90
43679;DHT22;29279;50.858;4.392;2023-12-14T09:41:44;12.60;99.90
43679;DHT22;29279;50.858;4.392;2023-12-14T09:44:11;12.40;99.90
43679;DHT22;29279;50.858;4.392;2023-12-14T09:46:38;12.30;99.90
43679;DHT22;29279;50.858;4.392;2023-12-14T09:49:05;12.20;99.90
43679;DHT22;29279;50.858;4.392;2023-12-14T09:51:31;12.10;99.90
43679;DHT22;29279;50.858;4.392;2023-12-14T09:53:57;12.00;99.90
43679;DHT22;29279;50.858;4.392;2023-12-14T09:56:26;11.90;99.90
43679;DHT22;29279;50.858;4.392;2023-12-14T09:58:52;11.70;99.90
43679;DHT22;29279;50.858;4.392;2023-12-14T10:01:25;11.60;99.90
43679;DHT22;29279;50.858;4.392;2023-12-14T10:06:33;11.50;99.90
43679;DHT22;29279;50.858;4.392;2023-12-14T10:08:58;11.50;99.90
43679;DHT22;29279;50.858;4.392;2023-12-14T10:11:24;11.40;99.90
43679;DHT22;29279;50.858;4.392;2023-12-14T10:13:50;11.40;99.90
43679;DHT22;29279;50.858;4.392;2023-12-14T10:16:32;11.20;99.90
43679;DHT22;29279;50.858;4.392;2023-12-14T10:18:59;11.00;99.90
43679;DHT22;29279;50.858;4.392;2023-12-14T10:21:26;10.70;99.90
43679;DHT22;29279;50.858;4.392;2023-12-14T10:23:56;10.70;99.90
43679;DHT22;29279;50.858;4.392;2023-12-14T10:26:23;10.70;99.90
43679;DHT22;29279;50.858;4.392;2023-12-14T10:28:50;10.80;99.90
43679;DHT22;29279;50.858;4.392;2023-12-14T10:31:18;10.80;99.90
43679;DHT22;29279;50.858;4.392;2023-12-14T10:33:45;10.70;99.90
43679;DHT22;29279;50.858;4.392;2023-12-14T10:36:16;10.60;99.90
43679;DHT22;29279;50.858;4.392;2023-12-14T10:38:43;10.60;99.90
43679;DHT22;29279;50.858;4.392;2023-12-14T10:41:12;10.60;99.90
43679;DHT22;29279;50.858;4.392;2023-12-14T10:43:39;10.60;99.90
43679;DHT22;29279;50.858;4.392;2023-12-14T10:46:07;10.70;99.90
43679;DHT22;29279;50.858;4.392;2023-12-14T10:48:35;10.70;99.90
43679;DHT22;29279;50.858;4.392;2023-12-14T10:51:03;10.50;99.90
43679;DHT22;29279;50.858;4.392;2023-12-14T10:53:30;10.50;99.90
43679;DHT22;29279;50.858;4.392;2023-12-14T10:55:56;10.50;99.90
43679;DHT22;29279;50.858;4.392;2023-12-14T10:58:24;10.40;99.90
43679;DHT22;29279;50.858;4.392;2023-12-14T11:01:00;10.40;99.90
43679;DHT22;29279;50.858;4.392;2023-12-14T11:03:33;10.60;99.90
43679;DHT22;29279;50.858;4.392;2023-12-14T11:06:00;10.70;99.90
43679;DHT22;29279;50.858;4.392;2023-12-14T11:08:25;10.90;99.90
43679;DHT22;29279;50.858;4.392;2023-12-14T11:11:03;10.90;99.90
43679;DHT22;29279;50.858;4.392;2023-12-14T11:13:35;10.90;99.90
43679;DHT22;29279;50.858;4.392;2023-12-14T11:16:04;10.90;99.90
43679;DHT22;29279;50.858;4.392;2023-12-14T11:18:30;10.90;99.90
43679;DHT22;29279;50.858;4.392;2023-12-14T11:21:00;10.90;99.90
43679;DHT22;29279;50.858;4.392;2023-12-14T11:23:29;11.00;99.90
43679;DHT22;29279;50.858;4.392;2023-12-14T11:26:04;11.00;99.90
43679;DHT22;29279;50.858;4.392;2023-12-14T11:28:31;11.00;99.90
43679;DHT22;29279;50.858;4.392;2023-12-14T11:30:57;10.90;99.90
43679;DHT22;29279;50.858;4.392;2023-12-14T11:33:23;10.90;99.90
43679;DHT22;29279;50.858;4.392;2023-12-14T11:35:50;10.80;99.90
43679;DHT22;29279;50.858;4.392;2023-12-14T11:38:18;10.80;99.90
43679;DHT22;29279;50.858;4.392;2023-12-14T11:40:47;10.70;99.90
43679;DHT22;29279;50.858;4.392;2023-12-14T11:43:13;10.80;99.90
43679;DHT22;29279;50.858;4.392;2023-12-14T11:45:40;10.90;99.90
43679;DHT22;29279;50.858;4.392;2023-12-14T11:48:09;10.70;99.90
43679;DHT22;29279;50.858;4.392;2023-12-14T11:50:36;10.40;99.90
43679;DHT22;29279;50.858;4.392;2023-12-14T11:53:03;10.10;99.90
43679;DHT22;29279;50.858;4.392;2023-12-14T11:55:29;10.20;99.90
43679;DHT22;29279;50.858;4.392;2023-12-14T11:57:58;10.20;99.90
43679;DHT22;29279;50.858;4.392;2023-12-14T12:00:28;10.30;99.90
43679;DHT22;29279;50.858;4.392;2023-12-14T12:03:13;10.50;99.90
43679;DHT22;29279;50.858;4.392;2023-12-14T12:08:25;10.50;99.90
43679;DHT22;29279;50.858;4.392;2023-12-14T12:10:50;10.60;99.90
43679;DHT22;29279;50.858;4.392;2023-12-14T12:13:20;10.60;99.90
43679;DHT22;29279;50.858;4.392;2023-12-14T12:15:47;10.40;99.90
43679;DHT22;29279;50.858;4.392;2023-12-14T12:18:14;10.40;99.90
43679;DHT22;29279;50.858;4.392;2023-12-14T12:20:40;10.20;99.90
43679;DHT22;29279;50.858;4.392;2023-12-14T12:23:06;10.10;99.90
43679;DHT22;29279;50.858;4.392;2023-12-14T12:25:33;10.10;99.90
43679;DHT22;29279;50.858;4.392;2023-12-14T12:28:00;10.10;99.90
43679;DHT22;29279;50.858;4.392;2023-12-14T12:30:27;10.20;99.90
43679;DHT22;29279;50.858;4.392;2023-12-14T12:32:53;10.10;99.90
43679;DHT22;29279;50.858;4.392;2023-12-14T12:35:21;10.10;99.90
43679;DHT22;29279;50.858;4.392;2023-12-14T12:37:47;9.80;99.90
43679;DHT22;29279;50.858;4.392;2023-12-14T12:40:19;9.50;99.90
43679;DHT22;29279;50.858;4.392;2023-12-14T12:42:45;9.50;99.90
43679;DHT22;29279;50.858;4.392;2023-12-14T12:45:14;9.50;99.90
43679;DHT22;29279;50.858;4.392;2023-12-14T12:47:40;9.60;99.90
43679;DHT22;29279;50.858;4.392;2023-12-14T12:50:07;9.70;99.90
43679;DHT22;29279;50.858;4.392;2023-12-14T12:52:33;9.60;99.90
43679;DHT22;29279;50.858;4.392;2023-12-14T12:54:58;9.50;99.90
43679;DHT22;29279;50.858;4.392;2023-12-14T12:57:24;9.50;99.90
43679;DHT22;29279;50.858;4.392;2023-12-14T12:59:49;9.50;99.90
43679;DHT22;29279;50.858;4.392;2023-12-14T13:02:15;9.70;99.90
43679;DHT22;29279;50.858;4.392;2023-12-14T13:04:41;9.70;99.90
43679;DHT22;29279;50.858;4.392;2023-12-14T13:07:07;9.80;99.90
43679;DHT22;29279;50.858;4.392;2023-12-14T13:09:32;9.80;99.90
43679;DHT22;29279;50.858;4.392;2023-12-14T13:11:58;9.70;99.90
43679;DHT22;29279;50.858;4.392;2023-12-14T13:14:23;9.80;99.90
43679;DHT22;29279;50.858;4.392;2023-12-14T13:16:49;10.00;99.90
43679;DHT22;29279;50.858;4.392;2023-12-14T13:19:15;10.00;99.90
43679;DHT22;29279;50.858;4.392;2023-12-14T13:21:41;10.10;99.90
43679;DHT22;29279;50.858;4.392;2023-12-14T13:24:07;10.00;99.90
43679;DHT22;29279;50.858;4.392;2023-12-14T13:26:32;10.00;99.90
43679;DHT22;29279;50.858;4.392;2023-12-14T13:28:59;10.00;99.90
43679;DHT22;29279;50.858;4.392;2023-12-14T13:31:24;9.90;99.90
43679;DHT22;29279;50.858;4.392;2023-12-14T13:33:50;9.90;99.90
43679;DHT22;29279;50.858;4.392;2023-12-14T13:36:16;9.90;99.90
43679;DHT22;29279;50.858;4.392;2023-12-14T13:38:42;10.10;99.90
43679;DHT22;29279;50.858;4.392;2023-12-14T13:41:08;10.00;99.90
43679;DHT22;29279;50.858;4.392;2023-12-14T13:43:34;10.00;99.90
43679;DHT22;29279;50.858;4.392;2023-12-14T13:46:00;9.90;99.90
43679;DHT22;29279;50.858;4.392;2023-12-14T13:48:26;9.80;99.90
43679;DHT22;29279;50.858;4.392;2023-12-14T13:50:55;9.90;99.90
43679;DHT22;29279;50.858;4.392;2023-12-14T13:53:21;9.70;99.90
43679;DHT22;29279;50.858;4.392;2023-12-14T13:55:47;9.70;99.90
43679;DHT22;29279;50.858;4.392;2023-12-14T13:58:16;9.70;99.90
43679;DHT22;29279;50.858;4.392;2023-12-14T14:00:44;9.80;99.90
43679;DHT22;29279;50.858;4.392;2023-12-14T14:03:09;9.80;99.90
43679;DHT22;29279;50.858;4.392;2023-12-14T14:05:36;9.90;99.90
43679;DHT22;29279;50.858;4.392;2023-12-14T14:08:02;9.90;99.90
43679;DHT22;29279;50.858;4.392;2023-12-14T14:10:29;9.90;99.90
43679;DHT22;29279;50.858;4.392;2023-12-14T14:12:54;10.00;99.90
43679;DHT22;29279;50.858;4.392;2023-12-14T14:15:21;10.10;99.90
43679;DHT22;29279;50.858;4.392;2023-12-14T14:17:47;10.20;99.90
43679;DHT22;29279;50.858;4.392;2023-12-14T14:20:17;10.30;99.90
43679;DHT22;29279;50.858;4.392;2023-12-14T14:22:42;10.30;99.90
43679;DHT22;29279;50.858;4.392;2023-12-14T14:25:08;10.30;99.90
43679;DHT22;29279;50.858;4.392;2023-12-14T14:27:34;10.20;99.90
43679;DHT22;29279;50.858;4.392;2023-12-14T14:30:00;10.10;99.90
43679;DHT22;29279;50.858;4.392;2023-12-14T14:32:26;10.10;99.90
43679;DHT22;29279;50.858;4.392;2023-12-14T14:34:52;10.10;99.90
43679;DHT22;29279;50.858;4.392;2023-12-14T14:37:20;10.10;99.90
43679;DHT22;29279;50.858;4.392;2023-12-14T14:39:45;10.00;99.90
43679;DHT22;29279;50.858;4.392;2023-12-14T14:42:11;10.00;99.90
43679;DHT22;29279;50.858;4.392;2023-12-14T14:44:37;10.10;99.90
43679;DHT22;29279;50.858;4.392;2023-12-14T14:47:03;10.30;99.90
43679;DHT22;29279;50.858;4.392;2023-12-14T14:49:29;10.40;99.90
43679;DHT22;29279;50.858;4.392;2023-12-14T14:51:54;10.40;99.90
43679;DHT22;29279;50.858;4.392;2023-12-14T14:54:20;10.30;99.90
43679;DHT22;29279;50.858;4.392;2023-12-14T14:56:46;10.20;99.90
43679;DHT22;29279;50.858;4.392;2023-12-14T14:59:12;10.30;99.90
43679;DHT22;29279;50.858;4.392;2023-12-14T15:01:41;10.20;99.90
43679;DHT22;29279;50.858;4.392;2023-12-14T15:04:06;10.10;99.90
43679;DHT22;29279;50.858;4.392;2023-12-14T15:06:32;10.00;99.90
43679;DHT22;29279;50.858;4.392;2023-12-14T15:08:59;9.90;99.90
43679;DHT22;29279;50.858;4.392;2023-12-14T15:11:25;9.90;99.90
43679;DHT22;29279;50.858;4.392;2023-12-14T15:13:50;9.90;99.90
43679;DHT22;29279;50.858;4.392;2023-12-14T15:16:16;9.90;99.90
43679;DHT22;29279;50.858;4.392;2023-12-14T15:18:43;9.90;99.90
43679;DHT22;29279;50.858;4.392;2023-12-14T15:21:10;9.80;99.90
43679;DHT22;29279;50.858;4.392;2023-12-14T15:23:35;9.70;99.90
43679;DHT22;29279;50.858;4.392;2023-12-14T15:26:02;9.60;99.90
43679;DHT22;29279;50.858;4.392;2023-12-14T15:28:28;9.70;99.90
43679;DHT22;29279;50.858;4.392;2023-12-14T15:30:53;9.80;99.90
43679;DHT22;29279;50.858;4.392;2023-12-14T15:33:19;9.80;99.90
43679;DHT22;29279;50.858;4.392;2023-12-14T15:35:46;10.00;99.90